deformed-offering

Nearby METAR Reports

 

KSJC - San Jose, California, USA
Distance from station: NE 9mi, 14km
Updated: Mon, 30-Nov-2020 8:53am PST
Few Clouds
Few Clouds
 Wind from calm
Wind: Calm
Temperature: 46°F , 8°C
Dew Point: 36°F , 2°C
Humidity: 66%
Barometer: 30.31 inHg , 1026.4 hPa
Clouds: Few Clouds
Visibility: 10 miles , 16 km
Cloud details: Few Clouds 1300 ft
2020/11/30 16:53 KSJC 301653Z 00000KT 10SM FEW013 08/02 A3031 RMK AO2 SLP263 FU FEW013 T00780017 $
KRHV - San Jose/Reid, California, USA
Distance from station: ENE 12mi, 19km
Updated: Mon, 30-Nov-2020 8:47am PST
Clear
Clear
 Wind from calm
Wind: Calm
Temperature: 46°F , 8°C
Dew Point: 36°F , 2°C
Humidity: 66%
Barometer: 30.31 inHg , 1026.4 hPa
Clouds: Clear
Visibility: 10 miles , 16 km
2020/11/30 16:47 KRHV 301647Z 00000KT 10SM SKC 08/02 A3031
 
KPAO - Palo Alto, California, USA
Distance from station: NNW 14mi, 23km
Updated: Mon, 30-Nov-2020 8:47am PST
Clear
Clear
 Wind from calm
Wind: Calm
Temperature: 45°F , 7°C
Dew Point: 37°F , 3°C
Humidity: 76%
Barometer: 30.33 inHg , 1027.1 hPa
Clouds: Clear
Visibility: 10 miles , 16 km
2020/11/30 16:47 KPAO 301647Z 00000KT 10SM SKC 07/03 A3033
KSQL - San Carlos Airpo, California, USA
Distance from station: NW 21mi, 34km
Updated: Mon, 30-Nov-2020 8:47am PST
Few Clouds
Few Clouds
 Wind from calm
Wind: Calm
Temperature: 46°F , 8°C
Dew Point: 45°F , 7°C
Humidity: 93%
Barometer: 30.33 inHg , 1027.1 hPa
Clouds: Few Clouds
Visibility: 10 miles , 16 km
Cloud details: Few Clouds 20000 ft
2020/11/30 16:47 KSQL 301647Z 00000KT 10SM FEW200 08/07 A3033
 
KWVI - Watsonville, California, USA
Distance from station: SSE 27mi, 44km
Updated: Mon, 30-Nov-2020 8:53am PST
Clear
Clear
 Wind from ESE
Wind: ESE 5 mph , 7 km/h
Temperature: 45°F , 7°C
Wind Chill: 42°F , 6°C
Dew Point: 36°F , 2°C
Humidity: 71%
Barometer: 30.32 inHg , 1026.8 hPa
Clouds: Clear
Visibility: 10 miles , 16 km
2020/11/30 16:53 KWVI 301653Z AUTO 11004KT 10SM CLR 07/02 A3032 RMK AO2 SLP266 T00720017
KHWD - Hayward, California, USA
Distance from station: N 28mi, 44km
Updated: Mon, 30-Nov-2020 8:54am PST
Clear
Clear
 Wind from calm
Wind: Calm
Temperature: 48°F , 9°C
Dew Point: 36°F , 2°C
Humidity: 62%
Barometer: 30.32 inHg , 1026.8 hPa
Clouds: Clear
Visibility: 10 miles , 16 km
2020/11/30 16:54 KHWD 301654Z 00000KT 10SM CLR 09/02 A3032 RMK AO2 SLP278 T00940022
 
KSFO - San Francisco, California, USA
Distance from station: NW 30mi, 49km
Updated: Mon, 30-Nov-2020 8:56am PST
Few Clouds
Few Clouds
 Wind from calm
Wind: Calm
Temperature: 52°F , 11°C
Dew Point: 45°F , 7°C
Humidity: 77%
Barometer: 30.32 inHg , 1026.8 hPa
Clouds: Few Clouds
Visibility: 10 miles , 16 km
Cloud details: Few Clouds 1500 ft
Few Clouds 20000 ft
2020/11/30 16:56 KSFO 301656Z 00000KT 10SM FEW015 FEW200 11/07 A3032 RMK AO2 SLP266 T01060072
KHAF - Half Moon Bay, California, USA
Distance from station: WNW 31mi, 50km
Updated: Mon, 30-Nov-2020 9:35am PST
Clear
Clear
 
Temperature: 52°F , 11°C
Dew Point: 46°F , 8°C
Humidity: 82%
Barometer: 30.31 inHg , 1026.4 hPa
Clouds: Clear
Visibility: 7 miles , 11 km
2020/11/30 17:35 KHAF 301735Z AUTO 7SM CLR 11/08 A3031 RMK AO2
 
KLVK - Livermore, California, USA
Distance from station: NNE 31mi, 51km
Updated: Mon, 30-Nov-2020 8:53am PST
Clear
Clear
 Wind from W
Wind: W 5 mph , 7 km/h
Temperature: 43°F , 6°C
Wind Chill: 40°F , 4°C
Dew Point: 30°F , -1°C
Humidity: 61%
Barometer: 30.31 inHg , 1026.4 hPa
Clouds: Clear
Visibility: 10 miles , 16 km
2020/11/30 16:53 KLVK 301653Z 27004KT 10SM CLR 06/M01 A3031 RMK AO2 SLP265 T00561011
KOAK - Oakland, California, USA
Distance from station: NNW 33mi, 53km
Updated: Mon, 30-Nov-2020 8:53am PST
Few Clouds
Few Clouds
 Wind from calm
Wind: Calm
Temperature: 50°F , 10°C
Dew Point: 37°F , 3°C
Humidity: 62%
Barometer: 30.33 inHg , 1027.1 hPa
Clouds: Few Clouds
Visibility: 10 miles , 16 km
Cloud details: Few Clouds 1400 ft
Few Clouds 18000 ft
2020/11/30 16:53 KOAK 301653Z 00000KT 10SM FEW014 FEW180 10/03 A3033 RMK AO2 SLP271 T01000033
 
KCVH - Hollister Muni, California, USA
Distance from station: SE 42mi, 68km
Updated: Mon, 30-Nov-2020 9:35am PST
Clear
Clear
 Wind from calm
Wind: Calm
Temperature: 48°F , 9°C
Dew Point: 27°F , -3°C
Humidity: 43%
Barometer: 30.32 inHg , 1026.8 hPa
Clouds: Clear
Visibility: 10 miles , 16 km
2020/11/30 17:35 KCVH 301735Z AUTO 00000KT 10SM CLR 09/M03 A3032 RMK A01
KSNS - Salinas, California, USA
Distance from station: SSE 48mi, 77km
Updated: Mon, 30-Nov-2020 8:53am PST
Clear
Clear
 Wind from S
Wind: S 5 mph , 7 km/h
Temperature: 45°F , 7°C
Wind Chill: 42°F , 6°C
Dew Point: 30°F , -1°C
Humidity: 57%
Barometer: 30.31 inHg , 1026.4 hPa
Clouds: Clear
Visibility: 10 miles , 16 km
2020/11/30 16:53 KSNS 301653Z 17004KT 10SM CLR 07/M01 A3031 RMK AO2 SLP273 T00671006
 
KMRY - Monterey, California, USA
Distance from station: SSE 49mi, 78km
Updated: Mon, 30-Nov-2020 8:54am PST
Clear
Clear
 Wind from ESE
Wind: ESE 5 mph , 7 km/h
Temperature: 50°F , 10°C
Wind Chill: 48°F , 9°C
Dew Point: 36°F , 2°C
Humidity: 58%
Barometer: 30.29 inHg , 1025.7 hPa
Clouds: Clear
Visibility: 10 miles , 16 km
2020/11/30 16:54 KMRY 301654Z 12004KT 10SM CLR 10/02 A3029 RMK AO2 SLP271 T01000022
KCCR - Concord, California, USA
Distance from station: N 50mi, 81km
Updated: Mon, 30-Nov-2020 8:53am PST
Clear
Clear
 Wind from SSE
Wind: SSE 3 mph , 6 km/h
Temperature: 46°F , 8°C
Dew Point: 32°F , 0°C
Humidity: 57%
Barometer: 30.33 inHg , 1027.1 hPa
Clouds: Clear
Visibility: 10 miles , 16 km
2020/11/30 16:53 KCCR 301653Z 15003KT 10SM CLR 08/00 A3033 RMK AO2 SLP256 T00780000
deformed-offering